createdAt,value
2022-11-14T00:02:35.229Z,92.05
2022-11-14T00:05:21.140Z,92.00
2022-11-14T00:08:06.489Z,92.27
2022-11-14T00:10:51.992Z,92.25
2022-11-14T00:13:37.034Z,92.35
2022-11-14T00:16:21.947Z,92.36
2022-11-14T00:19:06.839Z,92.36
2022-11-14T00:21:53.323Z,92.78
2022-11-14T00:24:38.391Z,92.57
2022-11-14T00:27:23.320Z,92.46
2022-11-14T00:30:08.913Z,92.44
2022-11-14T00:32:54.085Z,92.44
2022-11-14T00:35:38.878Z,92.56
2022-11-14T00:38:24.056Z,92.49
2022-11-14T00:41:09.199Z,92.59
2022-11-14T00:43:54.240Z,92.81
2022-11-14T00:46:39.118Z,92.70
2022-11-14T00:49:24.198Z,92.82
2022-11-14T00:52:09.332Z,92.63
2022-11-14T00:54:54.620Z,92.91
2022-11-14T00:57:39.740Z,93.02
2022-11-14T01:00:24.705Z,92.94
2022-11-14T01:03:09.566Z,92.78
2022-11-14T01:05:54.433Z,92.92
2022-11-14T01:08:39.420Z,92.97
2022-11-14T01:11:24.494Z,92.58
2022-11-14T01:14:09.812Z,92.61
2022-11-14T01:16:54.612Z,92.45
2022-11-14T01:19:39.559Z,92.64
2022-11-14T01:22:24.575Z,92.61
2022-11-14T01:25:09.553Z,92.57
2022-11-14T01:27:54.567Z,92.92
2022-11-14T01:30:40.129Z,92.88
2022-11-14T01:33:25.301Z,92.85
2022-11-14T01:36:10.995Z,93.30
2022-11-14T01:38:55.959Z,93.07
2022-11-14T01:41:40.845Z,93.47
2022-11-14T01:44:48.230Z,93.67
2022-11-14T01:47:33.976Z,93.65
2022-11-14T01:50:19.152Z,93.54
2022-11-14T01:53:04.251Z,93.68
2022-11-14T01:55:50.091Z,93.93
2022-11-14T01:58:38.571Z,94.20
2022-11-14T02:01:25.795Z,94.11
2022-11-14T02:04:15.260Z,94.24
2022-11-14T02:07:03.369Z,94.52
2022-11-14T02:09:49.418Z,94.41
2022-11-14T02:12:34.688Z,94.29
2022-11-14T02:15:19.860Z,94.58
2022-11-14T02:18:04.968Z,94.57
2022-11-14T02:20:49.846Z,94.73
2022-11-14T02:23:34.739Z,94.70
2022-11-14T02:26:21.160Z,94.86
2022-11-14T02:29:07.788Z,95.21
2022-11-14T02:31:52.913Z,95.49
2022-11-14T02:34:38.554Z,95.54
2022-11-14T02:37:23.687Z,95.50
2022-11-14T02:40:09.364Z,95.52
2022-11-14T02:42:54.600Z,95.72
2022-11-14T02:45:39.529Z,95.71
2022-11-14T02:48:24.383Z,95.82
2022-11-14T02:51:09.257Z,95.95
2022-11-14T02:53:54.372Z,95.81
2022-11-14T02:56:39.208Z,96.01
2022-11-14T02:59:24.029Z,95.96
2022-11-14T03:02:08.945Z,95.92
2022-11-14T03:04:54.000Z,96.18
2022-11-14T03:07:39.204Z,96.09
2022-11-14T03:10:24.540Z,96.00
2022-11-14T03:13:09.521Z,96.18
2022-11-14T03:15:54.419Z,96.15
2022-11-14T03:18:39.303Z,96.24
2022-11-14T03:21:24.232Z,96.31
2022-11-14T03:24:09.120Z,96.59
2022-11-14T03:26:54.008Z,96.40
2022-11-14T03:29:38.795Z,96.67
2022-11-14T03:32:23.734Z,96.46
2022-11-14T03:35:09.199Z,96.58
2022-11-14T03:37:56.645Z,96.75
2022-11-14T03:40:42.670Z,96.58
2022-11-14T03:43:31.399Z,96.53
2022-11-14T03:46:16.704Z,96.43
2022-11-14T03:49:02.307Z,96.44
2022-11-14T03:51:48.085Z,96.49
2022-11-14T03:54:33.368Z,96.85
2022-11-14T03:57:18.139Z,96.95
2022-11-14T04:00:03.911Z,97.21
2022-11-14T04:02:48.828Z,97.31
2022-11-14T04:05:33.800Z,97.10
2022-11-14T04:08:18.669Z,97.16
2022-11-14T04:11:03.492Z,97.29
2022-11-14T04:13:48.382Z,97.35
2022-11-14T04:16:33.397Z,97.41
2022-11-14T04:19:18.298Z,97.42
2022-11-14T04:22:03.588Z,97.24
2022-11-14T04:24:48.817Z,97.18
2022-11-14T04:27:34.523Z,97.45
2022-11-14T04:30:19.333Z,97.59
2022-11-14T04:33:04.406Z,97.76
2022-11-14T04:35:49.186Z,97.71
2022-11-14T04:38:34.024Z,98.00
2022-11-14T04:41:18.927Z,97.94
2022-11-14T04:44:04.016Z,98.17
2022-11-14T04:46:48.784Z,98.30
2022-11-14T04:49:33.755Z,98.24
2022-11-14T04:52:18.740Z,98.24
2022-11-14T04:55:03.980Z,98.36
2022-11-14T04:57:54.900Z,98.42
2022-11-14T05:00:40.089Z,98.51
2022-11-14T05:03:25.792Z,98.26
2022-11-14T05:06:11.117Z,98.01
2022-11-14T05:08:56.087Z,98.14
2022-11-14T05:11:41.197Z,98.24
2022-11-14T05:14:26.142Z,98.30
2022-11-14T05:17:11.107Z,98.19
2022-11-14T05:19:56.181Z,98.32
2022-11-14T05:22:41.051Z,98.39
2022-11-14T05:25:26.337Z,98.26
2022-11-14T05:28:11.454Z,98.41
2022-11-14T05:31:02.789Z,98.46
2022-11-14T05:33:48.030Z,98.51
2022-11-14T05:36:33.109Z,98.45
2022-11-14T05:39:18.159Z,98.53
2022-11-14T05:42:03.273Z,98.62
2022-11-14T05:44:48.460Z,98.72
2022-11-14T05:47:33.468Z,98.71
2022-11-14T05:50:18.303Z,98.73
2022-11-14T05:53:03.042Z,98.53
2022-11-14T05:55:47.986Z,98.83
2022-11-14T05:58:34.844Z,99.05
2022-11-14T06:01:20.333Z,99.25
2022-11-14T06:04:06.453Z,99.16
2022-11-14T06:06:51.531Z,99.15
2022-11-14T06:09:36.271Z,99.31
2022-11-14T06:12:21.207Z,99.27
2022-11-14T06:15:06.621Z,99.23
2022-11-14T06:17:54.936Z,99.22
2022-11-14T06:20:40.052Z,99.36
2022-11-14T06:23:25.207Z,99.32
2022-11-14T06:26:24.444Z,99.34
2022-11-14T06:29:10.143Z,99.36
2022-11-14T06:31:55.253Z,99.76
2022-11-14T06:34:40.166Z,100.00
2022-11-14T06:37:25.168Z,100.00
2022-11-14T06:40:10.777Z,100.00
2022-11-14T06:42:56.591Z,100.00
2022-11-14T06:45:41.885Z,100.00
2022-11-14T06:48:26.986Z,100.00
2022-11-14T06:51:13.211Z,100.00
2022-11-14T06:53:58.669Z,100.00
2022-11-14T06:56:43.735Z,100.00
2022-11-14T06:59:28.652Z,100.00
2022-11-14T07:02:20.489Z,100.00
2022-11-14T07:05:06.697Z,100.00
2022-11-14T07:07:51.898Z,100.00
2022-11-14T07:10:36.936Z,100.00
2022-11-14T07:13:21.872Z,100.00
2022-11-14T07:16:07.239Z,100.00
2022-11-14T07:18:52.379Z,100.00
2022-11-14T07:21:37.191Z,100.00
2022-11-14T07:24:22.030Z,100.00
2022-11-14T07:27:09.141Z,100.00
2022-11-14T07:29:54.288Z,100.00
2022-11-14T07:32:39.109Z,100.00
2022-11-14T07:35:24.914Z,100.00
2022-11-14T07:38:09.898Z,100.00
2022-11-14T07:41:00.528Z,100.00
2022-11-14T07:43:46.132Z,100.00
2022-11-14T07:46:30.991Z,100.00
2022-11-14T07:49:16.007Z,100.00
2022-11-14T07:52:01.069Z,100.00
2022-11-14T07:54:46.000Z,100.00
2022-11-14T07:57:35.454Z,100.00
2022-11-14T08:00:23.840Z,100.00
2022-11-14T08:03:09.162Z,100.00
2022-11-14T08:06:09.493Z,100.00
2022-11-14T08:08:54.505Z,100.00
2022-11-14T08:11:48.895Z,100.00
2022-11-14T08:14:34.393Z,100.00
2022-11-14T08:17:21.321Z,100.00
2022-11-14T08:20:08.319Z,100.00
2022-11-14T08:22:54.545Z,100.00
2022-11-14T08:25:39.929Z,98.24
2022-11-14T08:28:25.216Z,97.14
2022-11-14T08:31:10.771Z,96.44
2022-11-14T08:33:56.350Z,95.29
2022-11-14T08:36:41.205Z,94.72
2022-11-14T08:39:26.163Z,94.41
2022-11-14T08:42:11.042Z,93.70
2022-11-14T08:44:56.033Z,92.95
2022-11-14T08:47:40.961Z,92.37
2022-11-14T08:50:25.883Z,91.81
2022-11-14T08:53:11.524Z,91.32
2022-11-14T08:55:56.734Z,91.42
2022-11-14T08:58:42.002Z,90.89
2022-11-14T09:01:26.857Z,90.30
2022-11-14T09:04:12.136Z,90.45
2022-11-14T09:06:58.791Z,90.05
2022-11-14T09:09:43.590Z,90.21
2022-11-14T09:12:28.820Z,90.11
2022-11-14T09:15:13.948Z,89.40
2022-11-14T09:17:58.703Z,88.92
2022-11-14T09:20:43.497Z,88.67
2022-11-14T09:23:28.633Z,88.37
2022-11-14T09:26:16.217Z,87.92
2022-11-14T09:29:02.105Z,87.21
2022-11-14T09:31:47.324Z,87.23
2022-11-14T09:34:32.205Z,86.83
2022-11-14T09:37:17.311Z,86.79
2022-11-14T09:40:03.486Z,86.33
2022-11-14T09:43:07.304Z,85.48
2022-11-14T09:45:53.288Z,85.75
2022-11-14T09:48:38.541Z,85.83
2022-11-14T09:51:27.669Z,85.53
2022-11-14T09:54:29.208Z,85.49
2022-11-14T09:57:17.424Z,85.95
2022-11-14T10:00:23.071Z,85.62
2022-11-14T10:03:35.977Z,85.59
2022-11-14T10:06:25.336Z,85.31
2022-11-14T10:09:33.443Z,85.06
2022-11-14T10:12:26.880Z,84.91
2022-11-14T10:15:14.852Z,84.81
2022-11-14T10:18:31.160Z,84.98
2022-11-14T10:21:28.368Z,85.08
2022-11-14T10:24:29.841Z,84.93
2022-11-14T10:27:42.899Z,84.63
2022-11-14T10:30:39.488Z,84.08
2022-11-14T10:33:52.021Z,84.25
2022-11-14T10:36:55.933Z,84.08
2022-11-14T10:39:43.764Z,84.32
2022-11-14T10:42:38.319Z,83.83
2022-11-14T10:45:35.940Z,87.35
2022-11-14T10:48:30.442Z,81.17
2022-11-14T10:51:39.780Z,82.00
2022-11-14T10:54:37.170Z,81.94
2022-11-14T10:57:22.601Z,82.52
2022-11-14T11:00:19.556Z,82.45
2022-11-14T11:03:04.455Z,83.14
2022-11-14T11:05:52.059Z,83.36
2022-11-14T11:09:02.798Z,83.19
2022-11-14T11:11:59.418Z,83.38
2022-11-14T11:14:45.768Z,82.97
2022-11-14T11:17:37.071Z,83.30
2022-11-14T11:20:34.622Z,83.03
2022-11-14T11:23:25.375Z,83.03
2022-11-14T11:26:19.787Z,82.97
2022-11-14T11:29:06.578Z,83.12
2022-11-14T11:31:54.704Z,82.87
2022-11-14T11:34:40.370Z,83.63
2022-11-14T11:40:22.712Z,83.67
2022-11-14T11:46:42.992Z,83.80
2022-11-14T11:49:31.014Z,83.67
2022-11-14T11:52:44.175Z,83.25
2022-11-14T11:55:37.643Z,82.72
2022-11-14T11:58:27.988Z,82.54
2022-11-14T12:01:14.076Z,81.66
2022-11-14T12:04:00.668Z,80.26
2022-11-14T12:06:57.221Z,79.78
2022-11-14T12:10:09.268Z,79.53
2022-11-14T12:13:21.407Z,78.25
2022-11-14T12:16:19.536Z,78.56
2022-11-14T12:19:07.398Z,78.89
2022-11-14T12:22:03.724Z,78.91
2022-11-14T12:25:08.407Z,79.00
2022-11-14T12:28:13.668Z,78.76
2022-11-14T12:31:03.354Z,77.42
2022-11-14T12:33:55.914Z,76.00
2022-11-14T12:36:44.636Z,74.04
2022-11-14T12:39:31.523Z,73.65
2022-11-14T12:42:21.012Z,73.72
2022-11-14T12:45:41.247Z,74.18
2022-11-14T12:48:26.249Z,74.55
2022-11-14T12:51:29.349Z,74.13
2022-11-14T12:54:44.520Z,74.21
2022-11-14T12:58:01.586Z,74.50
2022-11-14T13:00:46.737Z,74.33
2022-11-14T13:03:40.725Z,74.46
2022-11-14T13:06:46.873Z,74.99
2022-11-14T13:09:54.486Z,75.13
2022-11-14T13:13:01.324Z,75.49
2022-11-14T13:16:13.451Z,75.19
2022-11-14T13:19:30.836Z,75.99
2022-11-14T13:22:15.967Z,75.92
2022-11-14T13:25:01.139Z,76.17
2022-11-14T13:28:07.944Z,76.29
2022-11-14T13:31:16.774Z,76.82
2022-11-14T13:34:37.489Z,76.94
2022-11-14T13:37:48.406Z,77.30
2022-11-14T13:40:39.878Z,77.79
2022-11-14T13:43:47.534Z,77.99
2022-11-14T13:46:54.315Z,78.48
2022-11-14T13:49:59.084Z,78.74
2022-11-14T13:52:47.545Z,79.35
2022-11-14T13:55:56.330Z,79.64
2022-11-14T13:59:17.036Z,79.68
2022-11-14T14:02:22.120Z,80.08
2022-11-14T14:05:20.893Z,80.13
2022-11-14T14:08:19.939Z,80.43
2022-11-14T14:11:23.724Z,80.32
2022-11-14T14:14:17.870Z,80.87
2022-11-14T14:17:35.540Z,81.08
2022-11-14T14:20:51.067Z,81.17
2022-11-14T14:23:55.064Z,81.16
2022-11-14T14:26:59.061Z,81.57
2022-11-14T14:30:08.626Z,81.63
2022-11-14T14:33:11.963Z,81.69
2022-11-14T14:35:57.271Z,81.83
2022-11-14T14:38:42.225Z,81.88
2022-11-14T14:41:31.741Z,81.57
2022-11-14T14:44:22.886Z,81.25
2022-11-14T14:47:34.081Z,81.54
2022-11-14T14:50:22.332Z,81.57
2022-11-14T14:53:18.557Z,81.45
2022-11-14T14:56:18.331Z,81.42
2022-11-14T14:59:17.237Z,81.48
2022-11-14T15:02:02.517Z,81.30
2022-11-14T15:04:47.363Z,81.40
2022-11-14T15:07:32.906Z,81.30
2022-11-14T15:10:29.484Z,81.49
2022-11-14T15:13:16.028Z,81.58
2022-11-14T15:16:03.234Z,82.13
2022-11-14T15:18:50.491Z,81.93
2022-11-14T15:21:35.424Z,81.98
2022-11-14T15:24:23.903Z,81.91
2022-11-14T15:27:14.532Z,81.99
2022-11-14T15:30:06.141Z,86.73
2022-11-14T15:32:56.901Z,83.53
2022-11-14T15:35:42.228Z,81.73
2022-11-14T15:38:44.263Z,84.89
2022-11-14T15:41:31.723Z,88.44
2022-11-14T15:44:33.864Z,83.47
2022-11-14T15:47:39.443Z,80.73
2022-11-14T15:50:33.107Z,81.00
2022-11-14T15:53:23.549Z,81.20
2022-11-14T15:56:11.623Z,81.29
2022-11-14T15:58:56.733Z,81.74
2022-11-14T16:01:44.269Z,81.84
2022-11-14T16:04:44.397Z,82.28
2022-11-14T16:07:32.318Z,82.39
2022-11-14T16:10:23.238Z,82.47
2022-11-14T16:13:08.130Z,82.37
2022-11-14T16:15:53.071Z,82.27
2022-11-14T16:18:37.912Z,82.38
2022-11-14T16:21:22.794Z,82.57
2022-11-14T16:24:14.055Z,82.65
2022-11-14T16:26:58.991Z,82.77
2022-11-14T16:29:44.000Z,82.77
2022-11-14T16:32:28.864Z,83.03
2022-11-14T16:35:16.720Z,83.10
2022-11-14T16:38:01.982Z,83.16
2022-11-14T16:40:47.157Z,83.29
2022-11-14T16:43:32.305Z,83.21
2022-11-14T16:46:17.583Z,83.10
2022-11-14T16:49:02.891Z,82.88
2022-11-14T16:51:50.434Z,83.21
2022-11-14T16:54:35.510Z,83.42
2022-11-14T16:57:20.498Z,83.52
2022-11-14T17:00:08.222Z,83.65
2022-11-14T17:02:53.431Z,83.93
2022-11-14T17:05:46.146Z,83.98
2022-11-14T17:08:31.395Z,84.16
2022-11-14T17:11:16.344Z,83.98
2022-11-14T17:14:01.349Z,84.32
2022-11-14T17:16:46.668Z,84.49
2022-11-14T17:19:31.570Z,84.70
2022-11-14T17:22:17.757Z,84.77
2022-11-14T17:25:03.139Z,84.71
2022-11-14T17:27:48.925Z,84.95
2022-11-14T17:30:33.695Z,85.01
2022-11-14T17:33:18.582Z,85.08
2022-11-14T17:36:09.015Z,84.95
2022-11-14T17:38:54.161Z,85.23
2022-11-14T17:41:39.078Z,85.32
2022-11-14T17:44:23.942Z,85.42
2022-11-14T17:47:08.686Z,85.31
2022-11-14T17:49:53.852Z,85.32
2022-11-14T17:52:40.880Z,85.29
2022-11-14T17:55:26.048Z,85.42
2022-11-14T17:58:12.076Z,85.42
2022-11-14T18:01:00.831Z,85.43
2022-11-14T18:03:46.366Z,85.57
2022-11-14T18:06:33.296Z,85.66
2022-11-14T18:09:18.491Z,85.75
2022-11-14T18:12:03.559Z,85.78
2022-11-14T18:14:48.705Z,85.93
2022-11-14T18:17:33.570Z,85.98
2022-11-14T18:20:18.582Z,85.87
2022-11-14T18:23:03.807Z,86.10
2022-11-14T18:25:48.626Z,86.32
2022-11-14T18:28:33.719Z,86.10
2022-11-14T18:31:18.888Z,86.35
2022-11-14T18:34:03.884Z,86.21
2022-11-14T18:36:49.362Z,86.32
2022-11-14T18:39:34.451Z,86.16
2022-11-14T18:42:19.428Z,86.26
2022-11-14T18:45:04.747Z,86.43
2022-11-14T18:47:49.591Z,86.54
2022-11-14T18:50:34.664Z,86.43
2022-11-14T18:53:19.496Z,86.65
2022-11-14T18:56:06.284Z,86.83
2022-11-14T18:58:56.040Z,86.72
2022-11-14T19:01:41.194Z,86.81
2022-11-14T19:04:26.371Z,86.92
2022-11-14T19:07:11.423Z,87.03
2022-11-14T19:09:56.679Z,87.23
2022-11-14T19:12:42.625Z,87.22
2022-11-14T19:15:27.540Z,87.47
2022-11-14T19:18:12.458Z,87.36
2022-11-14T19:21:02.342Z,87.41
2022-11-14T19:23:47.384Z,87.47
2022-11-14T19:26:33.380Z,87.84
2022-11-14T19:29:18.466Z,87.89
2022-11-14T19:32:04.248Z,88.05
2022-11-14T19:34:49.697Z,88.03
2022-11-14T19:37:34.638Z,88.07
2022-11-14T19:40:19.924Z,88.42
2022-11-14T19:43:07.150Z,88.52
2022-11-14T19:45:51.994Z,88.62
2022-11-14T19:48:37.886Z,89.11
2022-11-14T19:51:23.016Z,89.24
2022-11-14T19:54:09.962Z,89.66
2022-11-14T19:56:55.107Z,89.91
2022-11-14T19:59:40.418Z,90.03
2022-11-14T20:02:25.785Z,89.81
2022-11-14T20:05:10.708Z,90.36
2022-11-14T20:07:57.164Z,90.35
2022-11-14T20:10:48.285Z,90.14
2022-11-14T20:13:36.501Z,90.29
2022-11-14T20:16:25.240Z,90.38
2022-11-14T20:19:10.121Z,90.54
2022-11-14T20:21:55.453Z,90.80
2022-11-14T20:24:40.484Z,91.13
2022-11-14T20:27:25.427Z,91.20
2022-11-14T20:30:10.585Z,91.25
2022-11-14T20:32:55.851Z,91.38
2022-11-14T20:35:40.674Z,91.44
2022-11-14T20:38:25.644Z,91.57
2022-11-14T20:41:12.324Z,91.36
2022-11-14T20:43:57.615Z,91.23
2022-11-14T20:46:42.543Z,90.96
2022-11-14T20:49:27.467Z,90.43
2022-11-14T20:52:12.368Z,90.08
2022-11-14T20:54:57.278Z,89.71
2022-11-14T20:57:42.202Z,89.45
2022-11-14T21:00:27.247Z,89.23
2022-11-14T21:03:12.312Z,89.20
2022-11-14T21:05:57.591Z,89.19
2022-11-14T21:08:43.290Z,89.21
2022-11-14T21:11:28.459Z,89.08
2022-11-14T21:14:13.438Z,89.08
2022-11-14T21:16:58.750Z,89.03
2022-11-14T21:19:43.565Z,88.94
2022-11-14T21:22:28.474Z,89.13
2022-11-14T21:25:13.547Z,89.06
2022-11-14T21:27:58.508Z,88.96
2022-11-14T21:30:43.572Z,88.88
2022-11-14T21:33:30.477Z,88.75
2022-11-14T21:39:23.339Z,89.07
2022-11-14T21:42:08.560Z,89.59
2022-11-14T21:44:53.638Z,90.54
2022-11-14T21:47:38.544Z,90.77
2022-11-14T21:50:23.615Z,90.57
2022-11-14T21:53:15.740Z,90.83
2022-11-14T21:56:16.790Z,90.69
2022-11-14T21:59:13.177Z,90.62
2022-11-14T22:02:17.556Z,90.63
2022-11-14T22:05:02.741Z,90.50
2022-11-14T22:07:47.730Z,90.32
2022-11-14T22:10:32.697Z,90.25
2022-11-14T22:13:18.178Z,90.30
2022-11-14T22:16:08.070Z,89.98
2022-11-14T22:18:54.004Z,90.01
2022-11-14T22:21:39.143Z,90.03
2022-11-14T22:24:24.132Z,90.00
2022-11-14T22:27:09.250Z,89.82
2022-11-14T22:29:54.295Z,89.76
2022-11-14T22:32:39.575Z,89.79
2022-11-14T22:35:24.431Z,89.65
2022-11-14T22:38:09.454Z,89.72
2022-11-14T22:40:56.235Z,89.63
2022-11-14T22:43:41.523Z,89.74
2022-11-14T22:46:27.156Z,89.65
2022-11-14T22:49:14.212Z,89.71
2022-11-14T22:52:02.402Z,89.72
2022-11-14T22:54:47.187Z,89.83
2022-11-14T22:57:32.314Z,90.00
2022-11-14T23:00:17.724Z,89.96
2022-11-14T23:03:02.626Z,90.19
2022-11-14T23:05:48.252Z,90.25
2022-11-14T23:08:34.148Z,90.28
2022-11-14T23:11:22.276Z,90.46
2022-11-14T23:14:07.629Z,90.71
2022-11-14T23:16:52.565Z,90.84
2022-11-14T23:19:37.884Z,90.99
2022-11-14T23:22:22.588Z,91.31
2022-11-14T23:25:08.006Z,91.42
2022-11-14T23:27:53.660Z,91.63
2022-11-14T23:30:38.756Z,91.98
2022-11-14T23:33:23.761Z,92.23
2022-11-14T23:36:08.890Z,92.38
2022-11-14T23:38:54.287Z,92.63
2022-11-14T23:41:39.297Z,92.79
2022-11-14T23:44:24.151Z,93.05
2022-11-14T23:47:09.162Z,93.26
2022-11-14T23:49:54.359Z,93.12
2022-11-14T23:52:39.308Z,93.25
2022-11-14T23:55:24.098Z,93.30
2022-11-14T23:58:09.158Z,93.68
